sensor_id;sensor_type;location;lat;lon;timestamp;P1;durP1;ratioP1;P2;durP2;ratioP2
51925;SDS011;37952;51.938;15.480;2022-08-19T00:01:11;6.10;;;5.50;;
51925;SDS011;37952;51.938;15.480;2022-08-19T00:04:30;6.70;;;6.10;;
51925;SDS011;37952;51.938;15.480;2022-08-19T00:07:41;6.70;;;6.10;;
51925;SDS011;37952;51.938;15.480;2022-08-19T00:10:45;7.90;;;6.10;;
51925;SDS011;37952;51.938;15.480;2022-08-19T00:13:50;7.50;;;6.20;;
51925;SDS011;37952;51.938;15.480;2022-08-19T00:16:53;6.40;;;5.90;;
51925;SDS011;37952;51.938;15.480;2022-08-19T00:19:57;6.50;;;5.90;;
51925;SDS011;37952;51.938;15.480;2022-08-19T00:23:00;7.40;;;6.40;;
51925;SDS011;37952;51.938;15.480;2022-08-19T00:26:04;7.00;;;6.50;;
51925;SDS011;37952;51.938;15.480;2022-08-19T00:29:08;9.40;;;6.60;;
51925;SDS011;37952;51.938;15.480;2022-08-19T00:32:13;7.10;;;6.60;;
51925;SDS011;37952;51.938;15.480;2022-08-19T00:35:19;7.80;;;7.20;;
51925;SDS011;37952;51.938;15.480;2022-08-19T00:38:22;8.90;;;8.20;;
51925;SDS011;37952;51.938;15.480;2022-08-19T00:41:39;10.50;;;8.20;;
51925;SDS011;37952;51.938;15.480;2022-08-19T00:44:43;8.30;;;7.70;;
51925;SDS011;37952;51.938;15.480;2022-08-19T00:47:46;9.80;;;9.00;;
51925;SDS011;37952;51.938;15.480;2022-08-19T00:50:50;9.40;;;8.50;;
51925;SDS011;37952;51.938;15.480;2022-08-19T00:53:56;10.00;;;9.20;;
51925;SDS011;37952;51.938;15.480;2022-08-19T00:57:01;9.10;;;8.30;;
51925;SDS011;37952;51.938;15.480;2022-08-19T01:00:08;9.00;;;8.30;;
51925;SDS011;37952;51.938;15.480;2022-08-19T01:03:16;8.50;;;7.90;;
51925;SDS011;37952;51.938;15.480;2022-08-19T01:06:22;9.10;;;7.90;;
51925;SDS011;37952;51.938;15.480;2022-08-19T01:09:25;8.40;;;7.80;;
51925;SDS011;37952;51.938;15.480;2022-08-19T01:12:28;9.80;;;8.80;;
51925;SDS011;37952;51.938;15.480;2022-08-19T01:15:38;9.50;;;8.60;;
51925;SDS011;37952;51.938;15.480;2022-08-19T01:18:45;9.40;;;8.60;;
51925;SDS011;37952;51.938;15.480;2022-08-19T01:21:54;10.00;;;9.00;;
51925;SDS011;37952;51.938;15.480;2022-08-19T01:25:16;12.00;;;8.80;;
51925;SDS011;37952;51.938;15.480;2022-08-19T01:28:23;9.50;;;8.90;;
51925;SDS011;37952;51.938;15.480;2022-08-19T01:31:41;9.30;;;7.70;;
51925;SDS011;37952;51.938;15.480;2022-08-19T01:34:44;10.00;;;7.80;;
51925;SDS011;37952;51.938;15.480;2022-08-19T01:37:54;8.90;;;7.80;;
51925;SDS011;37952;51.938;15.480;2022-08-19T01:41:03;8.90;;;8.00;;
51925;SDS011;37952;51.938;15.480;2022-08-19T01:44:12;8.20;;;7.60;;
51925;SDS011;37952;51.938;15.480;2022-08-19T01:47:20;8.00;;;6.80;;
51925;SDS011;37952;51.938;15.480;2022-08-19T01:50:23;7.80;;;7.30;;
51925;SDS011;37952;51.938;15.480;2022-08-19T01:53:26;9.30;;;6.50;;
51925;SDS011;37952;51.938;15.480;2022-08-19T01:56:35;8.30;;;6.90;;
51925;SDS011;37952;51.938;15.480;2022-08-19T01:59:39;7.70;;;7.10;;
51925;SDS011;37952;51.938;15.480;2022-08-19T02:02:43;7.00;;;6.50;;
51925;SDS011;37952;51.938;15.480;2022-08-19T02:05:47;6.90;;;6.40;;
51925;SDS011;37952;51.938;15.480;2022-08-19T02:08:49;7.30;;;6.70;;
51925;SDS011;37952;51.938;15.480;2022-08-19T02:11:55;6.10;;;5.70;;
51925;SDS011;37952;51.938;15.480;2022-08-19T02:14:58;6.20;;;5.70;;
51925;SDS011;37952;51.938;15.480;2022-08-19T02:18:03;5.30;;;4.90;;
51925;SDS011;37952;51.938;15.480;2022-08-19T02:21:06;14.10;;;5.90;;
51925;SDS011;37952;51.938;15.480;2022-08-19T02:24:09;6.40;;;5.90;;
51925;SDS011;37952;51.938;15.480;2022-08-19T02:27:13;9.80;;;5.70;;
51925;SDS011;37952;51.938;15.480;2022-08-19T02:30:16;6.60;;;6.10;;
51925;SDS011;37952;51.938;15.480;2022-08-19T02:33:20;9.50;;;6.60;;
51925;SDS011;37952;51.938;15.480;2022-08-19T02:36:23;6.70;;;6.20;;
51925;SDS011;37952;51.938;15.480;2022-08-19T02:39:27;7.60;;;6.90;;
51925;SDS011;37952;51.938;15.480;2022-08-19T02:42:30;7.20;;;6.70;;
51925;SDS011;37952;51.938;15.480;2022-08-19T02:45:35;7.90;;;7.40;;
51925;SDS011;37952;51.938;15.480;2022-08-19T02:48:43;7.60;;;7.00;;
51925;SDS011;37952;51.938;15.480;2022-08-19T02:51:46;8.10;;;7.30;;
51925;SDS011;37952;51.938;15.480;2022-08-19T02:54:49;8.00;;;7.50;;
51925;SDS011;37952;51.938;15.480;2022-08-19T02:57:52;8.60;;;7.80;;
51925;SDS011;37952;51.938;15.480;2022-08-19T03:00:56;9.50;;;7.70;;
51925;SDS011;37952;51.938;15.480;2022-08-19T03:04:01;8.90;;;8.10;;
51925;SDS011;37952;51.938;15.480;2022-08-19T03:07:06;8.50;;;7.80;;
51925;SDS011;37952;51.938;15.480;2022-08-19T03:10:13;8.50;;;7.90;;
51925;SDS011;37952;51.938;15.480;2022-08-19T03:13:18;8.10;;;7.30;;
51925;SDS011;37952;51.938;15.480;2022-08-19T03:16:24;11.20;;;8.10;;
51925;SDS011;37952;51.938;15.480;2022-08-19T03:19:28;10.40;;;8.20;;
51925;SDS011;37952;51.938;15.480;2022-08-19T03:22:31;9.30;;;8.30;;
51925;SDS011;37952;51.938;15.480;2022-08-19T03:25:41;8.90;;;8.40;;
51925;SDS011;37952;51.938;15.480;2022-08-19T03:28:46;8.70;;;8.00;;
51925;SDS011;37952;51.938;15.480;2022-08-19T03:32:00;10.10;;;8.50;;
51925;SDS011;37952;51.938;15.480;2022-08-19T03:35:06;9.20;;;8.40;;
51925;SDS011;37952;51.938;15.480;2022-08-19T03:38:09;9.70;;;8.70;;
51925;SDS011;37952;51.938;15.480;2022-08-19T03:41:20;9.20;;;8.50;;
51925;SDS011;37952;51.938;15.480;2022-08-19T03:44:35;8.50;;;7.90;;
51925;SDS011;37952;51.938;15.480;2022-08-19T03:47:40;8.30;;;7.60;;
51925;SDS011;37952;51.938;15.480;2022-08-19T03:50:43;8.50;;;7.80;;
51925;SDS011;37952;51.938;15.480;2022-08-19T03:53:48;8.80;;;8.20;;
51925;SDS011;37952;51.938;15.480;2022-08-19T03:56:52;9.30;;;8.70;;
51925;SDS011;37952;51.938;15.480;2022-08-19T03:59:57;8.90;;;8.30;;
51925;SDS011;37952;51.938;15.480;2022-08-19T04:03:15;9.60;;;8.90;;
51925;SDS011;37952;51.938;15.480;2022-08-19T04:06:21;8.60;;;7.70;;
51925;SDS011;37952;51.938;15.480;2022-08-19T04:09:25;11.30;;;8.80;;
51925;SDS011;37952;51.938;15.480;2022-08-19T04:12:28;9.50;;;8.70;;
51925;SDS011;37952;51.938;15.480;2022-08-19T04:15:31;8.40;;;7.90;;
51925;SDS011;37952;51.938;15.480;2022-08-19T04:18:41;8.60;;;7.90;;
51925;SDS011;37952;51.938;15.480;2022-08-19T04:21:46;9.20;;;8.60;;
51925;SDS011;37952;51.938;15.480;2022-08-19T04:24:51;8.90;;;8.30;;
51925;SDS011;37952;51.938;15.480;2022-08-19T04:27:54;9.70;;;8.50;;
51925;SDS011;37952;51.938;15.480;2022-08-19T04:30:59;9.40;;;8.40;;
51925;SDS011;37952;51.938;15.480;2022-08-19T04:34:04;9.40;;;8.50;;
51925;SDS011;37952;51.938;15.480;2022-08-19T04:37:09;9.00;;;8.30;;
51925;SDS011;37952;51.938;15.480;2022-08-19T04:40:15;8.20;;;7.70;;
51925;SDS011;37952;51.938;15.480;2022-08-19T04:43:38;9.10;;;8.30;;
51925;SDS011;37952;51.938;15.480;2022-08-19T04:46:41;8.50;;;7.70;;
51925;SDS011;37952;51.938;15.480;2022-08-19T04:49:53;11.80;;;8.50;;
51925;SDS011;37952;51.938;15.480;2022-08-19T04:52:56;10.90;;;8.20;;
51925;SDS011;37952;51.938;15.480;2022-08-19T04:55:59;9.30;;;8.40;;
51925;SDS011;37952;51.938;15.480;2022-08-19T04:59:06;9.40;;;8.60;;
51925;SDS011;37952;51.938;15.480;2022-08-19T05:02:11;8.70;;;8.10;;
51925;SDS011;37952;51.938;15.480;2022-08-19T05:05:14;8.60;;;7.80;;
51925;SDS011;37952;51.938;15.480;2022-08-19T05:08:21;8.70;;;8.00;;
51925;SDS011;37952;51.938;15.480;2022-08-19T05:11:35;9.00;;;8.20;;
51925;SDS011;37952;51.938;15.480;2022-08-19T05:14:42;10.90;;;8.10;;
51925;SDS011;37952;51.938;15.480;2022-08-19T05:17:47;9.10;;;8.30;;
51925;SDS011;37952;51.938;15.480;2022-08-19T05:21:11;8.70;;;8.00;;
51925;SDS011;37952;51.938;15.480;2022-08-19T05:24:38;8.70;;;8.20;;
51925;SDS011;37952;51.938;15.480;2022-08-19T05:28:01;9.30;;;8.60;;
51925;SDS011;37952;51.938;15.480;2022-08-19T05:31:04;9.70;;;8.80;;
51925;SDS011;37952;51.938;15.480;2022-08-19T05:34:07;8.60;;;8.00;;
51925;SDS011;37952;51.938;15.480;2022-08-19T05:37:21;10.60;;;7.60;;
51925;SDS011;37952;51.938;15.480;2022-08-19T05:40:25;9.00;;;8.30;;
51925;SDS011;37952;51.938;15.480;2022-08-19T05:43:30;8.80;;;8.10;;
51925;SDS011;37952;51.938;15.480;2022-08-19T05:46:33;9.90;;;8.00;;
51925;SDS011;37952;51.938;15.480;2022-08-19T05:49:37;8.70;;;8.00;;
51925;SDS011;37952;51.938;15.480;2022-08-19T05:52:41;8.90;;;8.20;;
51925;SDS011;37952;51.938;15.480;2022-08-19T05:55:47;10.00;;;7.70;;
51925;SDS011;37952;51.938;15.480;2022-08-19T05:58:50;8.70;;;8.10;;
51925;SDS011;37952;51.938;15.480;2022-08-19T06:01:55;8.70;;;7.90;;
51925;SDS011;37952;51.938;15.480;2022-08-19T06:04:59;8.60;;;8.00;;
51925;SDS011;37952;51.938;15.480;2022-08-19T06:08:02;8.60;;;8.00;;
51925;SDS011;37952;51.938;15.480;2022-08-19T06:11:16;9.20;;;8.40;;
51925;SDS011;37952;51.938;15.480;2022-08-19T06:14:28;10.90;;;8.30;;
51925;SDS011;37952;51.938;15.480;2022-08-19T06:17:35;8.80;;;7.90;;
51925;SDS011;37952;51.938;15.480;2022-08-19T06:20:38;9.30;;;8.40;;
51925;SDS011;37952;51.938;15.480;2022-08-19T06:23:57;8.90;;;8.30;;
51925;SDS011;37952;51.938;15.480;2022-08-19T06:27:01;9.00;;;8.50;;
51925;SDS011;37952;51.938;15.480;2022-08-19T06:30:05;10.20;;;8.10;;
51925;SDS011;37952;51.938;15.480;2022-08-19T06:33:09;9.70;;;8.30;;
51925;SDS011;37952;51.938;15.480;2022-08-19T06:36:23;8.90;;;8.40;;
51925;SDS011;37952;51.938;15.480;2022-08-19T06:39:37;9.40;;;7.90;;
51925;SDS011;37952;51.938;15.480;2022-08-19T06:42:51;9.70;;;8.80;;
51925;SDS011;37952;51.938;15.480;2022-08-19T06:45:57;9.20;;;8.30;;
51925;SDS011;37952;51.938;15.480;2022-08-19T06:49:03;9.20;;;8.50;;
51925;SDS011;37952;51.938;15.480;2022-08-19T06:52:07;8.80;;;8.10;;
51925;SDS011;37952;51.938;15.480;2022-08-19T06:55:15;9.10;;;8.40;;
51925;SDS011;37952;51.938;15.480;2022-08-19T06:58:20;11.80;;;8.80;;
51925;SDS011;37952;51.938;15.480;2022-08-19T07:01:23;9.10;;;8.30;;
51925;SDS011;37952;51.938;15.480;2022-08-19T07:04:34;9.60;;;8.80;;
51925;SDS011;37952;51.938;15.480;2022-08-19T07:07:43;10.00;;;9.10;;
51925;SDS011;37952;51.938;15.480;2022-08-19T07:10:49;9.90;;;9.00;;
51925;SDS011;37952;51.938;15.480;2022-08-19T07:13:52;9.50;;;8.70;;
51925;SDS011;37952;51.938;15.480;2022-08-19T07:16:56;8.60;;;8.10;;
51925;SDS011;37952;51.938;15.480;2022-08-19T07:19:59;9.00;;;8.40;;
51925;SDS011;37952;51.938;15.480;2022-08-19T07:23:11;8.60;;;8.00;;
51925;SDS011;37952;51.938;15.480;2022-08-19T07:29:30;9.50;;;8.60;;
51925;SDS011;37952;51.938;15.480;2022-08-19T07:32:36;8.50;;;7.80;;
51925;SDS011;37952;51.938;15.480;2022-08-19T07:35:40;8.40;;;7.70;;
51925;SDS011;37952;51.938;15.480;2022-08-19T07:38:44;9.50;;;6.80;;
51925;SDS011;37952;51.938;15.480;2022-08-19T07:41:50;11.30;;;7.70;;
51925;SDS011;37952;51.938;15.480;2022-08-19T07:44:54;7.90;;;7.40;;
51925;SDS011;37952;51.938;15.480;2022-08-19T07:47:57;9.80;;;7.40;;
51925;SDS011;37952;51.938;15.480;2022-08-19T07:51:02;8.30;;;7.70;;
51925;SDS011;37952;51.938;15.480;2022-08-19T07:54:07;9.20;;;8.40;;
51925;SDS011;37952;51.938;15.480;2022-08-19T07:57:10;8.40;;;7.50;;
51925;SDS011;37952;51.938;15.480;2022-08-19T08:00:14;8.40;;;7.60;;
51925;SDS011;37952;51.938;15.480;2022-08-19T08:03:26;9.80;;;7.80;;
51925;SDS011;37952;51.938;15.480;2022-08-19T08:06:49;7.50;;;7.10;;
51925;SDS011;37952;51.938;15.480;2022-08-19T08:10:12;14.70;;;8.00;;
51925;SDS011;37952;51.938;15.480;2022-08-19T08:13:24;8.80;;;8.10;;
51925;SDS011;37952;51.938;15.480;2022-08-19T08:16:35;9.10;;;8.40;;
51925;SDS011;37952;51.938;15.480;2022-08-19T08:19:41;16.30;;;11.00;;
51925;SDS011;37952;51.938;15.480;2022-08-19T08:22:47;10.70;;;9.90;;
51925;SDS011;37952;51.938;15.480;2022-08-19T08:26:09;10.90;;;10.10;;
51925;SDS011;37952;51.938;15.480;2022-08-19T08:29:14;11.30;;;10.30;;
51925;SDS011;37952;51.938;15.480;2022-08-19T08:32:18;13.00;;;11.10;;
51925;SDS011;37952;51.938;15.480;2022-08-19T08:35:21;11.60;;;10.50;;
51925;SDS011;37952;51.938;15.480;2022-08-19T08:38:25;13.50;;;12.10;;
51925;SDS011;37952;51.938;15.480;2022-08-19T08:48:14;14.10;;;13.00;;
51925;SDS011;37952;51.938;15.480;2022-08-19T08:51:29;12.80;;;11.80;;
51925;SDS011;37952;51.938;15.480;2022-08-19T08:54:39;16.30;;;12.50;;
51925;SDS011;37952;51.938;15.480;2022-08-19T08:58:10;14.80;;;13.60;;
51925;SDS011;37952;51.938;15.480;2022-08-19T09:01:18;15.70;;;14.30;;
51925;SDS011;37952;51.938;15.480;2022-08-19T09:04:23;13.80;;;12.70;;
51925;SDS011;37952;51.938;15.480;2022-08-19T09:10:53;15.30;;;14.00;;
51925;SDS011;37952;51.938;15.480;2022-08-19T09:17:41;13.60;;;12.70;;
51925;SDS011;37952;51.938;15.480;2022-08-19T09:20:44;15.40;;;14.10;;
51925;SDS011;37952;51.938;15.480;2022-08-19T09:23:49;14.10;;;13.00;;
51925;SDS011;37952;51.938;15.480;2022-08-19T09:26:53;16.70;;;15.20;;
51925;SDS011;37952;51.938;15.480;2022-08-19T09:29:58;14.80;;;13.40;;
51925;SDS011;37952;51.938;15.480;2022-08-19T09:33:03;17.50;;;16.00;;
51925;SDS011;37952;51.938;15.480;2022-08-19T09:36:06;15.10;;;13.80;;
51925;SDS011;37952;51.938;15.480;2022-08-19T09:39:12;16.60;;;15.10;;
51925;SDS011;37952;51.938;15.480;2022-08-19T09:42:18;17.10;;;15.40;;
51925;SDS011;37952;51.938;15.480;2022-08-19T09:45:36;16.40;;;14.90;;
51925;SDS011;37952;51.938;15.480;2022-08-19T09:48:40;15.50;;;14.30;;
51925;SDS011;37952;51.938;15.480;2022-08-19T09:51:44;17.90;;;16.00;;
51925;SDS011;37952;51.938;15.480;2022-08-19T09:54:52;16.30;;;14.70;;
51925;SDS011;37952;51.938;15.480;2022-08-19T09:57:56;17.80;;;16.00;;
51925;SDS011;37952;51.938;15.480;2022-08-19T10:00:59;17.80;;;16.20;;
51925;SDS011;37952;51.938;15.480;2022-08-19T10:04:04;16.00;;;14.70;;
51925;SDS011;37952;51.938;15.480;2022-08-19T10:07:22;16.20;;;14.60;;
51925;SDS011;37952;51.938;15.480;2022-08-19T10:10:38;18.10;;;16.30;;
51925;SDS011;37952;51.938;15.480;2022-08-19T10:13:44;18.60;;;16.80;;
51925;SDS011;37952;51.938;15.480;2022-08-19T10:16:48;18.60;;;16.90;;
51925;SDS011;37952;51.938;15.480;2022-08-19T10:19:52;19.40;;;17.40;;
51925;SDS011;37952;51.938;15.480;2022-08-19T10:22:57;18.80;;;16.70;;
51925;SDS011;37952;51.938;15.480;2022-08-19T10:26:06;17.80;;;16.10;;
51925;SDS011;37952;51.938;15.480;2022-08-19T10:29:11;16.90;;;15.40;;
51925;SDS011;37952;51.938;15.480;2022-08-19T10:32:33;16.10;;;14.70;;
51925;SDS011;37952;51.938;15.480;2022-08-19T10:35:37;15.40;;;14.10;;
51925;SDS011;37952;51.938;15.480;2022-08-19T10:38:59;15.40;;;14.00;;
51925;SDS011;37952;51.938;15.480;2022-08-19T10:42:10;15.80;;;13.70;;
51925;SDS011;37952;51.938;15.480;2022-08-19T10:45:16;15.80;;;14.40;;
51925;SDS011;37952;51.938;15.480;2022-08-19T10:48:20;15.20;;;13.90;;
51925;SDS011;37952;51.938;15.480;2022-08-19T10:51:23;14.40;;;13.30;;
51925;SDS011;37952;51.938;15.480;2022-08-19T10:54:49;15.40;;;14.00;;
51925;SDS011;37952;51.938;15.480;2022-08-19T10:58:12;15.10;;;13.20;;
51925;SDS011;37952;51.938;15.480;2022-08-19T11:01:17;14.70;;;13.20;;
51925;SDS011;37952;51.938;15.480;2022-08-19T11:04:20;14.10;;;12.80;;
51925;SDS011;37952;51.938;15.480;2022-08-19T11:07:32;13.90;;;12.70;;
51925;SDS011;37952;51.938;15.480;2022-08-19T11:10:35;13.50;;;12.40;;
51925;SDS011;37952;51.938;15.480;2022-08-19T11:13:40;11.40;;;10.50;;
51925;SDS011;37952;51.938;15.480;2022-08-19T11:16:44;11.50;;;10.60;;
51925;SDS011;37952;51.938;15.480;2022-08-19T11:19:47;12.80;;;11.50;;
51925;SDS011;37952;51.938;15.480;2022-08-19T11:22:51;11.80;;;11.00;;
51925;SDS011;37952;51.938;15.480;2022-08-19T11:25:58;12.30;;;11.00;;
51925;SDS011;37952;51.938;15.480;2022-08-19T11:29:03;13.10;;;11.00;;
51925;SDS011;37952;51.938;15.480;2022-08-19T11:32:09;10.90;;;10.00;;
51925;SDS011;37952;51.938;15.480;2022-08-19T11:35:13;13.40;;;12.20;;
51925;SDS011;37952;51.938;15.480;2022-08-19T11:38:16;14.60;;;13.40;;
51925;SDS011;37952;51.938;15.480;2022-08-19T11:41:21;14.00;;;12.90;;
51925;SDS011;37952;51.938;15.480;2022-08-19T11:44:26;15.30;;;13.90;;
51925;SDS011;37952;51.938;15.480;2022-08-19T11:47:30;13.90;;;12.70;;
51925;SDS011;37952;51.938;15.480;2022-08-19T11:50:33;13.50;;;12.20;;
51925;SDS011;37952;51.938;15.480;2022-08-19T11:53:36;13.50;;;12.50;;
51925;SDS011;37952;51.938;15.480;2022-08-19T11:56:40;12.90;;;11.90;;
51925;SDS011;37952;51.938;15.480;2022-08-19T12:06:48;15.20;;;13.90;;
51925;SDS011;37952;51.938;15.480;2022-08-19T12:13:56;15.70;;;14.30;;
51925;SDS011;37952;51.938;15.480;2022-08-19T12:17:01;16.10;;;14.50;;
51925;SDS011;37952;51.938;15.480;2022-08-19T12:20:05;14.00;;;12.80;;
51925;SDS011;37952;51.938;15.480;2022-08-19T12:23:09;14.90;;;13.70;;
51925;SDS011;37952;51.938;15.480;2022-08-19T12:26:18;15.30;;;14.00;;
51925;SDS011;37952;51.938;15.480;2022-08-19T12:29:21;15.00;;;13.90;;
51925;SDS011;37952;51.938;15.480;2022-08-19T12:32:31;15.70;;;14.10;;
51925;SDS011;37952;51.938;15.480;2022-08-19T12:35:34;16.50;;;14.90;;
51925;SDS011;37952;51.938;15.480;2022-08-19T12:38:38;17.50;;;15.90;;
51925;SDS011;37952;51.938;15.480;2022-08-19T12:41:43;18.60;;;16.80;;
51925;SDS011;37952;51.938;15.480;2022-08-19T12:48:25;16.30;;;14.80;;
51925;SDS011;37952;51.938;15.480;2022-08-19T12:51:36;17.60;;;15.90;;
51925;SDS011;37952;51.938;15.480;2022-08-19T12:58:08;16.70;;;15.30;;
51925;SDS011;37952;51.938;15.480;2022-08-19T13:01:14;20.30;;;15.80;;
51925;SDS011;37952;51.938;15.480;2022-08-19T13:04:23;16.40;;;14.80;;
51925;SDS011;37952;51.938;15.480;2022-08-19T13:07:26;16.80;;;15.40;;
51925;SDS011;37952;51.938;15.480;2022-08-19T13:10:30;18.70;;;16.70;;
51925;SDS011;37952;51.938;15.480;2022-08-19T13:13:38;18.30;;;16.40;;
51925;SDS011;37952;51.938;15.480;2022-08-19T13:16:45;16.70;;;15.10;;
51925;SDS011;37952;51.938;15.480;2022-08-19T13:19:49;17.70;;;16.10;;
51925;SDS011;37952;51.938;15.480;2022-08-19T13:22:53;17.10;;;15.60;;
51925;SDS011;37952;51.938;15.480;2022-08-19T13:26:00;19.00;;;17.00;;
51925;SDS011;37952;51.938;15.480;2022-08-19T13:29:11;15.70;;;14.40;;
51925;SDS011;37952;51.938;15.480;2022-08-19T13:32:37;14.90;;;13.70;;
51925;SDS011;37952;51.938;15.480;2022-08-19T13:35:59;16.10;;;14.60;;
51925;SDS011;37952;51.938;15.480;2022-08-19T13:39:04;15.20;;;13.90;;
51925;SDS011;37952;51.938;15.480;2022-08-19T13:42:08;15.40;;;14.10;;
51925;SDS011;37952;51.938;15.480;2022-08-19T13:45:14;15.20;;;13.80;;
51925;SDS011;37952;51.938;15.480;2022-08-19T13:48:19;15.90;;;14.40;;
51925;SDS011;37952;51.938;15.480;2022-08-19T13:51:21;15.60;;;14.20;;
51925;SDS011;37952;51.938;15.480;2022-08-19T13:54:24;15.80;;;14.30;;
51925;SDS011;37952;51.938;15.480;2022-08-19T13:57:29;13.10;;;12.00;;
51925;SDS011;37952;51.938;15.480;2022-08-19T14:00:34;15.70;;;13.70;;
51925;SDS011;37952;51.938;15.480;2022-08-19T14:03:39;15.40;;;13.80;;
51925;SDS011;37952;51.938;15.480;2022-08-19T14:06:42;16.60;;;15.00;;
51925;SDS011;37952;51.938;15.480;2022-08-19T14:09:45;15.80;;;14.20;;
51925;SDS011;37952;51.938;15.480;2022-08-19T14:12:59;14.80;;;13.60;;
51925;SDS011;37952;51.938;15.480;2022-08-19T14:16:06;13.60;;;12.50;;
51925;SDS011;37952;51.938;15.480;2022-08-19T14:19:12;14.20;;;12.80;;
51925;SDS011;37952;51.938;15.480;2022-08-19T14:22:15;13.20;;;12.30;;
51925;SDS011;37952;51.938;15.480;2022-08-19T14:25:25;14.30;;;13.20;;
51925;SDS011;37952;51.938;15.480;2022-08-19T14:28:29;15.40;;;14.10;;
51925;SDS011;37952;51.938;15.480;2022-08-19T14:31:32;13.30;;;12.30;;
51925;SDS011;37952;51.938;15.480;2022-08-19T14:34:35;13.60;;;12.60;;
51925;SDS011;37952;51.938;15.480;2022-08-19T14:37:40;13.10;;;12.10;;
51925;SDS011;37952;51.938;15.480;2022-08-19T14:40:47;15.00;;;13.90;;
51925;SDS011;37952;51.938;15.480;2022-08-19T14:43:52;14.40;;;13.10;;
51925;SDS011;37952;51.938;15.480;2022-08-19T14:46:56;16.20;;;12.70;;
51925;SDS011;37952;51.938;15.480;2022-08-19T14:50:07;12.60;;;11.80;;
51925;SDS011;37952;51.938;15.480;2022-08-19T14:53:20;13.10;;;12.10;;
51925;SDS011;37952;51.938;15.480;2022-08-19T14:56:24;12.20;;;11.20;;
51925;SDS011;37952;51.938;15.480;2022-08-19T14:59:29;12.10;;;11.20;;
51925;SDS011;37952;51.938;15.480;2022-08-19T15:02:32;12.70;;;11.60;;
51925;SDS011;37952;51.938;15.480;2022-08-19T15:05:37;12.30;;;11.20;;
51925;SDS011;37952;51.938;15.480;2022-08-19T15:08:40;12.30;;;11.10;;
51925;SDS011;37952;51.938;15.480;2022-08-19T15:11:45;12.60;;;11.40;;
51925;SDS011;37952;51.938;15.480;2022-08-19T15:14:50;12.40;;;10.90;;
51925;SDS011;37952;51.938;15.480;2022-08-19T15:17:58;11.80;;;10.80;;
51925;SDS011;37952;51.938;15.480;2022-08-19T15:21:05;11.50;;;10.80;;
51925;SDS011;37952;51.938;15.480;2022-08-19T15:24:09;12.20;;;11.10;;
51925;SDS011;37952;51.938;15.480;2022-08-19T15:27:13;10.90;;;9.00;;
51925;SDS011;37952;51.938;15.480;2022-08-19T15:30:18;11.40;;;10.30;;
51925;SDS011;37952;51.938;15.480;2022-08-19T15:33:26;11.50;;;10.80;;
51925;SDS011;37952;51.938;15.480;2022-08-19T15:36:29;10.60;;;9.90;;
51925;SDS011;37952;51.938;15.480;2022-08-19T15:39:45;10.90;;;10.00;;
51925;SDS011;37952;51.938;15.480;2022-08-19T15:42:49;10.50;;;9.80;;
51925;SDS011;37952;51.938;15.480;2022-08-19T15:45:52;12.00;;;10.60;;
51925;SDS011;37952;51.938;15.480;2022-08-19T15:48:55;11.60;;;10.60;;
51925;SDS011;37952;51.938;15.480;2022-08-19T15:52:02;13.60;;;9.80;;
51925;SDS011;37952;51.938;15.480;2022-08-19T15:55:05;11.60;;;10.70;;
51925;SDS011;37952;51.938;15.480;2022-08-19T15:58:10;11.90;;;11.20;;
51925;SDS011;37952;51.938;15.480;2022-08-19T16:01:34;11.30;;;10.40;;
51925;SDS011;37952;51.938;15.480;2022-08-19T16:04:57;11.90;;;11.10;;
51925;SDS011;37952;51.938;15.480;2022-08-19T16:08:19;12.80;;;11.20;;
51925;SDS011;37952;51.938;15.480;2022-08-19T16:11:24;10.70;;;10.00;;
51925;SDS011;37952;51.938;15.480;2022-08-19T16:14:31;10.90;;;10.30;;
51925;SDS011;37952;51.938;15.480;2022-08-19T16:17:37;11.70;;;10.60;;
51925;SDS011;37952;51.938;15.480;2022-08-19T16:20:41;11.40;;;10.70;;
51925;SDS011;37952;51.938;15.480;2022-08-19T16:23:44;11.30;;;10.30;;
51925;SDS011;37952;51.938;15.480;2022-08-19T16:26:48;11.20;;;10.40;;
51925;SDS011;37952;51.938;15.480;2022-08-19T16:29:52;15.10;;;10.70;;
51925;SDS011;37952;51.938;15.480;2022-08-19T16:32:55;11.90;;;9.50;;
51925;SDS011;37952;51.938;15.480;2022-08-19T16:35:58;11.30;;;10.20;;
51925;SDS011;37952;51.938;15.480;2022-08-19T16:39:09;11.00;;;10.20;;
51925;SDS011;37952;51.938;15.480;2022-08-19T16:42:16;10.60;;;9.90;;
51925;SDS011;37952;51.938;15.480;2022-08-19T16:45:19;10.90;;;10.20;;
51925;SDS011;37952;51.938;15.480;2022-08-19T16:48:24;11.60;;;10.70;;
51925;SDS011;37952;51.938;15.480;2022-08-19T16:51:29;11.90;;;10.40;;
51925;SDS011;37952;51.938;15.480;2022-08-19T16:54:35;11.10;;;10.20;;
51925;SDS011;37952;51.938;15.480;2022-08-19T16:57:39;12.40;;;11.20;;
51925;SDS011;37952;51.938;15.480;2022-08-19T17:00:44;11.80;;;11.10;;
51925;SDS011;37952;51.938;15.480;2022-08-19T17:03:47;10.90;;;10.30;;
51925;SDS011;37952;51.938;15.480;2022-08-19T17:06:53;14.50;;;13.20;;
51925;SDS011;37952;51.938;15.480;2022-08-19T17:09:57;14.60;;;13.50;;
51925;SDS011;37952;51.938;15.480;2022-08-19T17:13:01;13.80;;;12.60;;
51925;SDS011;37952;51.938;15.480;2022-08-19T17:16:11;14.50;;;13.30;;
51925;SDS011;37952;51.938;15.480;2022-08-19T17:19:14;14.90;;;13.90;;
51925;SDS011;37952;51.938;15.480;2022-08-19T17:22:18;14.90;;;13.50;;
51925;SDS011;37952;51.938;15.480;2022-08-19T17:25:21;15.60;;;14.30;;
51925;SDS011;37952;51.938;15.480;2022-08-19T17:28:28;16.60;;;15.20;;
51925;SDS011;37952;51.938;15.480;2022-08-19T17:31:32;14.60;;;13.50;;
51925;SDS011;37952;51.938;15.480;2022-08-19T17:34:36;15.20;;;13.60;;
51925;SDS011;37952;51.938;15.480;2022-08-19T17:37:40;13.30;;;12.10;;
51925;SDS011;37952;51.938;15.480;2022-08-19T17:40:44;15.20;;;13.80;;
51925;SDS011;37952;51.938;15.480;2022-08-19T17:43:49;13.30;;;12.20;;
51925;SDS011;37952;51.938;15.480;2022-08-19T17:46:52;12.00;;;11.20;;
51925;SDS011;37952;51.938;15.480;2022-08-19T17:49:56;13.70;;;12.50;;
51925;SDS011;37952;51.938;15.480;2022-08-19T17:53:00;13.20;;;12.30;;
51925;SDS011;37952;51.938;15.480;2022-08-19T17:56:04;15.30;;;14.10;;
51925;SDS011;37952;51.938;15.480;2022-08-19T17:59:07;15.30;;;13.90;;
51925;SDS011;37952;51.938;15.480;2022-08-19T18:02:16;14.90;;;13.70;;
51925;SDS011;37952;51.938;15.480;2022-08-19T18:05:25;15.20;;;13.70;;
51925;SDS011;37952;51.938;15.480;2022-08-19T18:08:31;13.10;;;12.20;;
51925;SDS011;37952;51.938;15.480;2022-08-19T18:11:34;13.60;;;12.70;;
51925;SDS011;37952;51.938;15.480;2022-08-19T18:14:39;14.20;;;13.00;;
51925;SDS011;37952;51.938;15.480;2022-08-19T18:17:43;13.90;;;12.80;;
51925;SDS011;37952;51.938;15.480;2022-08-19T18:20:47;15.20;;;13.90;;
51925;SDS011;37952;51.938;15.480;2022-08-19T18:23:50;14.40;;;13.30;;
51925;SDS011;37952;51.938;15.480;2022-08-19T18:27:01;15.30;;;14.20;;
51925;SDS011;37952;51.938;15.480;2022-08-19T18:30:06;13.10;;;12.20;;
51925;SDS011;37952;51.938;15.480;2022-08-19T18:33:10;14.30;;;13.10;;
51925;SDS011;37952;51.938;15.480;2022-08-19T18:36:16;14.50;;;13.30;;
51925;SDS011;37952;51.938;15.480;2022-08-19T18:39:40;15.30;;;14.10;;
51925;SDS011;37952;51.938;15.480;2022-08-19T18:43:02;15.50;;;14.10;;
51925;SDS011;37952;51.938;15.480;2022-08-19T18:46:25;15.00;;;13.70;;